createdAt,value
2019-03-24T00:00:00.000Z,99521
2019-03-24T00:05:00.000Z,99510
2019-03-24T00:10:00.000Z,99516
2019-03-24T00:15:00.000Z,99516
2019-03-24T00:20:00.000Z,99505
2019-03-24T00:25:00.000Z,99507
2019-03-24T00:30:00.000Z,99511
2019-03-24T00:35:00.000Z,99506
2019-03-24T00:40:00.000Z,99492
2019-03-24T00:45:00.000Z,99509
2019-03-24T00:50:00.000Z,99506
2019-03-24T00:55:00.000Z,99505
2019-03-24T01:00:00.000Z,99491
2019-03-24T01:05:00.000Z,99481
2019-03-24T01:10:00.000Z,99485
2019-03-24T01:15:00.000Z,99477
2019-03-24T01:20:00.000Z,99484
2019-03-24T01:25:00.000Z,99475
2019-03-24T01:30:00.000Z,99462
2019-03-24T01:35:00.000Z,99465
2019-03-24T01:40:00.000Z,99467
2019-03-24T01:45:00.000Z,99452
2019-03-24T01:50:00.000Z,99461
2019-03-24T01:55:00.000Z,99456
2019-03-24T02:01:00.000Z,99454
2019-03-24T02:06:00.000Z,99459
2019-03-24T02:11:00.000Z,99444
2019-03-24T02:16:00.000Z,99446
2019-03-24T02:21:00.000Z,99452
2019-03-24T02:26:00.000Z,99439
2019-03-24T02:31:00.000Z,99442
2019-03-24T02:36:00.000Z,99434
2019-03-24T02:41:00.000Z,99433
2019-03-24T02:46:00.000Z,99439
2019-03-24T02:51:00.000Z,99435
2019-03-24T02:56:00.000Z,99436
2019-03-24T03:01:00.000Z,99438
2019-03-24T03:06:00.000Z,99428
2019-03-24T03:11:00.000Z,99427
2019-03-24T03:16:00.000Z,99422
2019-03-24T03:21:00.000Z,99427
2019-03-24T03:26:00.000Z,99424
2019-03-24T03:31:00.000Z,99437
2019-03-24T03:36:00.000Z,99426
2019-03-24T03:41:00.000Z,99439
2019-03-24T03:46:00.000Z,99435
2019-03-24T03:51:00.000Z,99437
2019-03-24T03:56:00.000Z,99437
2019-03-24T04:01:00.000Z,99434
2019-03-24T04:06:00.000Z,99431
2019-03-24T04:11:00.000Z,99428
2019-03-24T04:16:00.000Z,99421
2019-03-24T04:22:00.000Z,99418
2019-03-24T04:27:00.000Z,99421
2019-03-24T04:32:00.000Z,99423
2019-03-24T04:37:00.000Z,99425
2019-03-24T04:42:00.000Z,99429
2019-03-24T04:47:00.000Z,99450
2019-03-24T04:52:00.000Z,99455
2019-03-24T04:57:00.000Z,99454
2019-03-24T05:02:00.000Z,99465
2019-03-24T05:07:00.000Z,99466
2019-03-24T05:12:00.000Z,99479
2019-03-24T05:17:00.000Z,99481
2019-03-24T05:22:00.000Z,99485
2019-03-24T05:27:00.000Z,99475
2019-03-24T05:32:00.000Z,99471
2019-03-24T05:37:00.000Z,99480
2019-03-24T05:42:00.000Z,99478
2019-03-24T05:47:00.000Z,99477
2019-03-24T05:52:00.000Z,99466
2019-03-24T05:57:00.000Z,99475
2019-03-24T06:02:00.000Z,99467
2019-03-24T06:07:00.000Z,99474
2019-03-24T06:12:00.000Z,99477
2019-03-24T06:17:00.000Z,99473
2019-03-24T06:22:00.000Z,99477
2019-03-24T06:27:00.000Z,99480
2019-03-24T06:32:00.000Z,99472
2019-03-24T06:37:00.000Z,99480
2019-03-24T06:42:00.000Z,99476
2019-03-24T06:47:00.000Z,99475
2019-03-24T06:52:00.000Z,99464
2019-03-24T06:57:00.000Z,99480
2019-03-24T07:03:00.000Z,99477
2019-03-24T07:08:00.000Z,99478
2019-03-24T07:13:00.000Z,99474
2019-03-24T07:18:00.000Z,99483
2019-03-24T07:23:00.000Z,99479
2019-03-24T07:28:00.000Z,99482
2019-03-24T07:33:00.000Z,99476
2019-03-24T07:38:00.000Z,99474
2019-03-24T07:43:00.000Z,99477
2019-03-24T07:48:00.000Z,99478
2019-03-24T07:53:00.000Z,99475
2019-03-24T07:58:00.000Z,99461
2019-03-24T08:03:00.000Z,99455
2019-03-24T08:08:00.000Z,99463
2019-03-24T08:13:00.000Z,99461
2019-03-24T08:18:00.000Z,99458
2019-03-24T08:23:00.000Z,99460
2019-03-24T08:28:00.000Z,99446
2019-03-24T08:33:00.000Z,99440
2019-03-24T08:38:00.000Z,99432
2019-03-24T08:43:00.000Z,99432
2019-03-24T08:48:00.000Z,99423
2019-03-24T08:53:00.000Z,99432
2019-03-24T08:58:00.000Z,99427
2019-03-24T09:03:00.000Z,99423
2019-03-24T09:08:00.000Z,99421
2019-03-24T09:13:00.000Z,99412
2019-03-24T09:18:00.000Z,99411
2019-03-24T09:23:00.000Z,99411
2019-03-24T09:28:00.000Z,99415
2019-03-24T09:33:00.000Z,99406
2019-03-24T09:38:00.000Z,99404
2019-03-24T09:43:00.000Z,99393
2019-03-24T09:48:00.000Z,99392
2019-03-24T09:54:00.000Z,99387
2019-03-24T09:59:00.000Z,99380
2019-03-24T10:04:00.000Z,99373
2019-03-24T10:09:00.000Z,99355
2019-03-24T10:14:00.000Z,99351
2019-03-24T10:19:00.000Z,99343
2019-03-24T10:24:00.000Z,99338
2019-03-24T10:29:00.000Z,99337
2019-03-24T10:34:00.000Z,99324
2019-03-24T10:39:00.000Z,99318
2019-03-24T10:44:00.000Z,99306
2019-03-24T10:49:00.000Z,99303
2019-03-24T10:54:00.000Z,99286
2019-03-24T10:59:00.000Z,99290
2019-03-24T11:04:00.000Z,99291
2019-03-24T11:09:00.000Z,99278
2019-03-24T11:14:00.000Z,99273
2019-03-24T11:19:00.000Z,99256
2019-03-24T11:24:00.000Z,99252
2019-03-24T11:29:00.000Z,99245
2019-03-24T11:34:00.000Z,99238
2019-03-24T11:39:00.000Z,99222
2019-03-24T11:44:00.000Z,99214
2019-03-24T11:49:00.000Z,99205
2019-03-24T11:54:00.000Z,99192
2019-03-24T11:59:00.000Z,99183
2019-03-24T12:04:00.000Z,99173
2019-03-24T12:09:00.000Z,99160
2019-03-24T12:14:00.000Z,99147
2019-03-24T12:19:00.000Z,99121
2019-03-24T12:24:00.000Z,99125
2019-03-24T12:29:00.000Z,99117
2019-03-24T12:34:00.000Z,99108
2019-03-24T12:40:00.000Z,99094
2019-03-24T12:45:00.000Z,99082
2019-03-24T12:50:00.000Z,99078
2019-03-24T12:55:00.000Z,99062
2019-03-24T13:00:00.000Z,99056
2019-03-24T13:05:00.000Z,99054
2019-03-24T13:10:00.000Z,99063
2019-03-24T13:15:00.000Z,99056
2019-03-24T13:20:00.000Z,99050
2019-03-24T13:25:00.000Z,99043
2019-03-24T13:30:00.000Z,99028
2019-03-24T13:35:00.000Z,99021
2019-03-24T13:40:00.000Z,99010
2019-03-24T13:45:00.000Z,99010
2019-03-24T13:50:00.000Z,99004
2019-03-24T13:55:00.000Z,98984
2019-03-24T14:00:00.000Z,98979
2019-03-24T14:05:00.000Z,98978
2019-03-24T14:10:00.000Z,98972
2019-03-24T14:15:00.000Z,98961
2019-03-24T14:20:00.000Z,98957
2019-03-24T14:25:00.000Z,98949
2019-03-24T14:30:00.000Z,98935
2019-03-24T14:35:00.000Z,98932
2019-03-24T14:40:00.000Z,98929
2019-03-24T14:45:00.000Z,98926
2019-03-24T14:50:00.000Z,98908
2019-03-24T14:55:00.000Z,98901
2019-03-24T15:00:00.000Z,98909
2019-03-24T15:05:00.000Z,98897
2019-03-24T15:10:00.000Z,98892
2019-03-24T15:15:00.000Z,98877
2019-03-24T15:20:00.000Z,98884
2019-03-24T15:26:00.000Z,98882
2019-03-24T15:31:00.000Z,98883
2019-03-24T15:36:00.000Z,98884
2019-03-24T15:41:00.000Z,98880
2019-03-24T15:46:00.000Z,98876
2019-03-24T15:51:00.000Z,98877
2019-03-24T15:56:00.000Z,98870
2019-03-24T16:01:00.000Z,98872
2019-03-24T16:06:00.000Z,98868
2019-03-24T16:11:00.000Z,98872
2019-03-24T16:16:00.000Z,98862
2019-03-24T16:21:00.000Z,98855
2019-03-24T16:26:00.000Z,98859
2019-03-24T16:31:00.000Z,98849
2019-03-24T16:36:00.000Z,98845
2019-03-24T16:41:00.000Z,98835
2019-03-24T16:46:00.000Z,98836
2019-03-24T16:51:00.000Z,98835
2019-03-24T16:56:00.000Z,98834
2019-03-24T17:01:00.000Z,98836
2019-03-24T17:06:00.000Z,98830
2019-03-24T17:11:00.000Z,98830
2019-03-24T17:16:00.000Z,98835
2019-03-24T17:21:00.000Z,98845
2019-03-24T17:26:00.000Z,98852
2019-03-24T17:31:00.000Z,98851
2019-03-24T17:36:00.000Z,98857
2019-03-24T17:41:00.000Z,98867
2019-03-24T17:46:00.000Z,98863
2019-03-24T17:51:00.000Z,98872
2019-03-24T17:57:00.000Z,98870
2019-03-24T18:02:00.000Z,98869
2019-03-24T18:07:00.000Z,98881
2019-03-24T18:12:00.000Z,98887
2019-03-24T18:17:00.000Z,98882
2019-03-24T18:22:00.000Z,98899
2019-03-24T18:27:00.000Z,98900
2019-03-24T18:32:00.000Z,98900
2019-03-24T18:37:00.000Z,98908
2019-03-24T18:42:00.000Z,98909
2019-03-24T18:47:00.000Z,98901
2019-03-24T18:52:00.000Z,98904
2019-03-24T18:57:00.000Z,98905
2019-03-24T19:02:00.000Z,98899
2019-03-24T19:07:00.000Z,98913
2019-03-24T19:12:00.000Z,98906
2019-03-24T19:17:00.000Z,98908
2019-03-24T19:22:00.000Z,98913
2019-03-24T19:27:00.000Z,98904
2019-03-24T19:32:00.000Z,98917
2019-03-24T19:37:00.000Z,98932
2019-03-24T19:42:00.000Z,98930
2019-03-24T19:47:00.000Z,98933
2019-03-24T19:52:00.000Z,98933
2019-03-24T19:57:00.000Z,98933
2019-03-24T20:02:00.000Z,98926
2019-03-24T20:07:00.000Z,98937
2019-03-24T20:12:00.000Z,98933
2019-03-24T20:17:00.000Z,98932
2019-03-24T20:22:00.000Z,98939
2019-03-24T20:27:00.000Z,98956
2019-03-24T20:32:00.000Z,98951
2019-03-24T20:37:00.000Z,98945
2019-03-24T20:42:00.000Z,98946
2019-03-24T20:48:00.000Z,98942
2019-03-24T20:53:00.000Z,98940
2019-03-24T20:58:00.000Z,98943
2019-03-24T21:03:00.000Z,98939
2019-03-24T21:08:00.000Z,98928
2019-03-24T21:13:00.000Z,98925
2019-03-24T21:18:00.000Z,98917
2019-03-24T21:23:00.000Z,98915
2019-03-24T21:28:00.000Z,98915
2019-03-24T21:33:00.000Z,98916
2019-03-24T21:38:00.000Z,98920
2019-03-24T21:43:00.000Z,98903
2019-03-24T21:48:00.000Z,98889
2019-03-24T21:53:00.000Z,98881
2019-03-24T21:58:00.000Z,98872
2019-03-24T22:03:00.000Z,98904
2019-03-24T22:08:00.000Z,98896
2019-03-24T22:13:00.000Z,98897
2019-03-24T22:18:00.000Z,98893
2019-03-24T22:23:00.000Z,98872
2019-03-24T22:28:00.000Z,98864
2019-03-24T22:33:00.000Z,98876
2019-03-24T22:38:00.000Z,98867
2019-03-24T22:43:00.000Z,98850
2019-03-24T22:48:00.000Z,98857
2019-03-24T22:53:00.000Z,98845
2019-03-24T22:59:00.000Z,98837
2019-03-24T23:04:00.000Z,98843
2019-03-24T23:09:00.000Z,98836
2019-03-24T23:14:00.000Z,98820
2019-03-24T23:19:00.000Z,98824
2019-03-24T23:24:00.000Z,98832
2019-03-24T23:29:00.000Z,98828
2019-03-24T23:34:00.000Z,98827
2019-03-24T23:39:00.000Z,98827
2019-03-24T23:44:00.000Z,98830
2019-03-24T23:49:00.000Z,98809
2019-03-24T23:54:00.000Z,98807
2019-03-24T23:59:00.000Z,98819
